createdAt,value
2018-11-14T00:01:39.257Z,7.62
2018-11-14T00:06:46.688Z,5.47
2018-11-14T00:12:09.299Z,7.03
2018-11-14T00:17:13.501Z,5.83
2018-11-14T00:22:17.992Z,9.40
2018-11-14T00:27:22.135Z,5.35
2018-11-14T00:32:26.633Z,5.03
2018-11-14T00:37:30.797Z,11.40
2018-11-14T00:42:35.555Z,6.97
2018-11-14T00:47:40.301Z,6.53
2018-11-14T00:52:45.485Z,6.90
2018-11-14T00:57:50.608Z,11.10
2018-11-14T01:02:55.285Z,7.92
2018-11-14T01:08:02.708Z,7.17
2018-11-14T01:13:07.266Z,6.35
2018-11-14T01:18:11.606Z,5.83
2018-11-14T01:23:16.076Z,8.38
2018-11-14T01:28:20.564Z,9.67
2018-11-14T01:33:25.680Z,6.47
2018-11-14T01:38:29.812Z,7.12
2018-11-14T01:43:33.980Z,9.20
2018-11-14T01:48:38.108Z,11.93
2018-11-14T01:53:42.254Z,8.23
2018-11-14T01:58:47.040Z,13.63
2018-11-14T02:03:51.494Z,11.37
2018-11-14T02:08:59.789Z,7.63
2018-11-14T02:14:03.967Z,10.10
2018-11-14T02:19:08.127Z,7.20
2018-11-14T02:24:12.311Z,7.40
2018-11-14T02:29:17.090Z,11.23
2018-11-14T02:34:21.881Z,11.17
2018-11-14T02:39:26.712Z,8.30
2018-11-14T02:44:30.847Z,10.87
2018-11-14T02:49:35.325Z,12.27
2018-11-14T02:54:39.477Z,10.05
2018-11-14T02:59:43.610Z,8.77
2018-11-14T03:04:47.813Z,10.67
2018-11-14T03:09:53.004Z,10.73
2018-11-14T03:14:57.477Z,10.97
2018-11-14T03:20:01.656Z,12.07
2018-11-14T03:25:07.116Z,9.90
2018-11-14T03:30:13.482Z,8.15
2018-11-14T03:35:18.261Z,9.23
2018-11-14T03:40:22.732Z,9.98
2018-11-14T03:45:27.225Z,11.68
2018-11-14T03:50:32.125Z,11.67
2018-11-14T03:55:36.625Z,10.55
2018-11-14T04:00:41.090Z,8.63
2018-11-14T04:05:45.253Z,11.07
2018-11-14T04:10:53.381Z,11.00
2018-11-14T04:15:57.878Z,11.33
2018-11-14T04:21:02.393Z,11.05
2018-11-14T04:26:07.181Z,9.37
2018-11-14T04:31:11.387Z,8.07
2018-11-14T04:36:15.913Z,13.15
2018-11-14T04:41:20.068Z,8.35
2018-11-14T04:46:24.286Z,13.43
2018-11-14T04:51:28.663Z,12.87
2018-11-14T04:56:33.116Z,12.80
2018-11-14T05:01:37.397Z,12.03
2018-11-14T05:06:45.356Z,16.73
2018-11-14T05:11:51.380Z,11.87
2018-11-14T05:16:55.541Z,15.60
2018-11-14T05:22:00.062Z,15.20
2018-11-14T05:27:04.845Z,10.30
2018-11-14T05:32:09.339Z,12.47
2018-11-14T05:37:13.578Z,10.90
2018-11-14T05:42:18.422Z,13.70
2018-11-14T05:47:22.561Z,11.77
2018-11-14T05:52:26.710Z,13.80
2018-11-14T05:57:31.168Z,16.60
2018-11-14T06:02:35.662Z,15.73
2018-11-14T06:07:40.155Z,14.63
2018-11-14T06:12:46.780Z,14.50
2018-11-14T06:17:52.101Z,13.17
2018-11-14T06:22:56.579Z,14.83
2018-11-14T06:28:01.802Z,13.10
2018-11-14T06:33:07.075Z,13.10
2018-11-14T06:38:11.248Z,13.83
2018-11-14T06:43:15.738Z,12.33
2018-11-14T06:48:20.462Z,17.00
2018-11-14T06:53:24.661Z,8.03
2018-11-14T06:58:28.789Z,13.50
2018-11-14T07:03:34.661Z,13.13
2018-11-14T07:08:40.427Z,14.40
2018-11-14T07:13:44.961Z,17.23
2018-11-14T07:18:49.760Z,14.97
2018-11-14T07:23:53.947Z,17.17
2018-11-14T07:28:58.453Z,15.70
2018-11-14T07:34:02.618Z,12.43
2018-11-14T07:39:09.432Z,13.43
2018-11-14T07:44:13.882Z,21.27
2018-11-14T07:49:18.292Z,17.53
2018-11-14T07:54:23.131Z,18.50
2018-11-14T07:59:27.943Z,17.57
2018-11-14T08:04:32.461Z,17.53
2018-11-14T08:09:37.445Z,15.33
2018-11-14T08:14:41.924Z,15.93
2018-11-14T08:19:46.293Z,16.70
2018-11-14T08:24:50.588Z,17.23
2018-11-14T08:29:55.016Z,17.90
2018-11-14T08:34:59.813Z,15.43
2018-11-14T08:40:05.367Z,15.93
2018-11-14T08:45:10.641Z,16.07
2018-11-14T08:50:15.982Z,18.37
2018-11-14T08:55:20.729Z,24.85
2018-11-14T09:00:26.618Z,15.63
2018-11-14T09:05:31.819Z,22.37
2018-11-14T09:10:36.009Z,17.57
2018-11-14T09:15:40.664Z,14.15
2018-11-14T09:20:45.159Z,20.00
2018-11-14T09:25:49.721Z,19.87
2018-11-14T09:30:54.189Z,15.45
2018-11-14T09:35:58.710Z,21.00
2018-11-14T09:41:02.954Z,23.02
2018-11-14T09:46:07.567Z,18.70
2018-11-14T09:51:11.729Z,18.73
2018-11-14T09:56:16.131Z,17.80
2018-11-14T10:01:20.779Z,22.42
2018-11-14T10:06:25.233Z,18.23
2018-11-14T10:11:30.309Z,17.73
2018-11-14T10:16:35.100Z,23.37
2018-11-14T10:21:40.274Z,18.67
2018-11-14T10:26:44.888Z,18.87
2018-11-14T10:31:49.491Z,19.57
2018-11-14T10:36:53.797Z,19.07
2018-11-14T10:41:58.897Z,22.80
2018-11-14T10:47:03.365Z,19.62
2018-11-14T10:52:07.846Z,26.13
2018-11-14T10:57:12.359Z,18.90
2018-11-14T11:02:22.173Z,22.22
2018-11-14T11:07:32.467Z,21.33
2018-11-14T11:12:43.270Z,18.52
2018-11-14T11:17:53.204Z,26.07
2018-11-14T11:22:57.674Z,16.53
2018-11-14T11:28:01.806Z,13.80
2018-11-14T11:33:06.445Z,21.33
2018-11-14T11:38:10.960Z,16.93
2018-11-14T11:43:15.545Z,13.23
2018-11-14T11:48:20.029Z,20.00
2018-11-14T11:53:24.145Z,13.08
2018-11-14T11:58:28.312Z,18.40
2018-11-14T12:03:32.904Z,18.33
2018-11-14T12:08:37.674Z,16.27
2018-11-14T12:13:45.805Z,23.70
2018-11-14T12:18:50.343Z,17.13
2018-11-14T12:23:54.814Z,12.30
2018-11-14T12:28:59.254Z,16.43
2018-11-14T12:34:03.438Z,17.12
2018-11-14T12:39:08.127Z,20.90
2018-11-14T12:44:12.735Z,14.73
2018-11-14T12:49:17.024Z,15.10
2018-11-14T12:54:21.624Z,17.87
2018-11-14T12:59:25.855Z,16.40
2018-11-14T13:04:30.828Z,16.27
2018-11-14T13:09:35.285Z,20.17
2018-11-14T13:14:41.107Z,14.73
2018-11-14T13:19:45.906Z,19.17
2018-11-14T13:24:50.388Z,13.50
2018-11-14T13:29:55.240Z,21.37
2018-11-14T13:34:59.989Z,11.63
2018-11-14T13:40:05.281Z,17.70
2018-11-14T13:45:11.287Z,17.07
2018-11-14T13:50:19.236Z,14.13
2018-11-14T13:55:23.599Z,19.40
2018-11-14T14:00:28.308Z,16.37
2018-11-14T14:05:32.892Z,19.35
2018-11-14T14:10:37.665Z,15.63
2018-11-14T14:15:43.824Z,14.07
2018-11-14T14:20:48.181Z,15.75
2018-11-14T14:25:53.019Z,11.17
2018-11-14T14:30:57.378Z,13.67
2018-11-14T14:36:02.062Z,21.57
2018-11-14T14:41:06.560Z,16.50
2018-11-14T14:46:11.168Z,13.32
2018-11-14T14:51:16.333Z,10.60
2018-11-14T14:56:21.184Z,13.83
2018-11-14T15:01:26.507Z,19.47
2018-11-14T15:06:31.059Z,16.90
2018-11-14T15:11:38.549Z,14.10
2018-11-14T15:16:43.046Z,12.00
2018-11-14T15:21:48.291Z,16.90
2018-11-14T15:26:52.731Z,18.85
2018-11-14T15:31:57.193Z,12.30
2018-11-14T15:37:02.253Z,13.77
2018-11-14T15:42:07.168Z,14.00
2018-11-14T15:47:11.670Z,13.20
2018-11-14T15:52:16.393Z,8.73
2018-11-14T15:57:21.250Z,15.10
2018-11-14T16:02:25.714Z,14.93
2018-11-14T16:07:29.878Z,8.93
2018-11-14T16:12:39.806Z,14.07
2018-11-14T16:17:44.342Z,8.73
2018-11-14T16:22:48.874Z,9.10
2018-11-14T16:27:55.084Z,13.63
2018-11-14T16:33:01.115Z,11.85
2018-11-14T16:38:05.365Z,17.40
2018-11-14T16:43:10.252Z,15.00
2018-11-14T16:48:14.709Z,17.13
2018-11-14T16:53:19.350Z,12.00
2018-11-14T16:58:23.523Z,12.80
2018-11-14T17:03:28.711Z,14.60
2018-11-14T17:08:33.032Z,17.23
2018-11-14T17:13:39.137Z,13.08
2018-11-14T17:18:43.628Z,15.67
2018-11-14T17:23:48.821Z,14.90
2018-11-14T17:28:53.007Z,19.00
2018-11-14T17:33:57.848Z,20.62
2018-11-14T17:39:02.741Z,16.67
2018-11-14T17:44:07.275Z,16.67
2018-11-14T17:49:11.543Z,19.27
2018-11-14T17:54:15.435Z,19.57
2018-11-14T17:59:20.289Z,20.45
2018-11-14T18:04:25.463Z,21.50
2018-11-14T18:09:29.614Z,28.45
2018-11-14T18:14:34.235Z,28.83
2018-11-14T18:19:38.633Z,29.37
2018-11-14T18:24:43.152Z,31.17
2018-11-14T18:29:47.365Z,31.07
2018-11-14T18:34:51.718Z,30.47
2018-11-14T18:39:56.194Z,30.35
2018-11-14T18:45:00.692Z,26.62
2018-11-14T18:50:05.014Z,24.87
2018-11-14T18:55:11.308Z,26.83
2018-11-14T19:00:17.913Z,23.23
2018-11-14T19:05:23.141Z,25.70
2018-11-14T19:10:28.703Z,20.13
2018-11-14T19:15:34.258Z,19.87
2018-11-14T19:20:39.124Z,25.45
2018-11-14T19:25:43.606Z,19.77
2018-11-14T19:30:47.820Z,18.23
2018-11-14T19:35:52.554Z,27.23
2018-11-14T19:40:57.187Z,20.23
2018-11-14T19:46:01.247Z,24.33
2018-11-14T19:51:06.628Z,21.17
2018-11-14T19:56:11.399Z,22.37
2018-11-14T20:01:15.600Z,24.20
2018-11-14T20:06:20.125Z,26.23
2018-11-14T20:11:24.407Z,22.75
2018-11-14T20:16:30.803Z,23.77
2018-11-14T20:21:35.315Z,20.13
2018-11-14T20:26:39.632Z,23.83
2018-11-14T20:36:53.423Z,18.17
2018-11-14T20:41:58.215Z,18.82
2018-11-14T20:47:02.713Z,23.43
2018-11-14T20:52:06.855Z,20.43
2018-11-14T20:57:10.965Z,22.73
2018-11-14T21:02:15.479Z,16.65
2018-11-14T21:07:19.946Z,21.13
2018-11-14T21:12:24.778Z,17.62
2018-11-14T21:17:30.979Z,19.77
2018-11-14T21:22:35.823Z,18.27
2018-11-14T21:27:41.896Z,22.35
2018-11-14T21:32:46.729Z,18.40
2018-11-14T21:37:52.524Z,20.75
2018-11-14T21:42:57.315Z,18.17
2018-11-14T21:48:06.933Z,20.27
2018-11-14T21:53:11.263Z,18.10
2018-11-14T21:58:15.471Z,23.42
2018-11-14T22:03:20.314Z,18.40
2018-11-14T22:08:24.822Z,22.37
2018-11-14T22:13:29.258Z,20.20
2018-11-14T22:18:34.438Z,18.30
2018-11-14T22:23:38.718Z,24.90
2018-11-14T22:28:42.950Z,19.77
2018-11-14T22:33:47.743Z,24.10
2018-11-14T22:38:52.440Z,19.43
2018-11-14T22:43:56.825Z,17.53
2018-11-14T22:49:01.226Z,20.67
2018-11-14T22:54:05.688Z,21.63
2018-11-14T22:59:10.151Z,19.48
2018-11-14T23:04:14.289Z,20.95
2018-11-14T23:09:18.658Z,14.50
2018-11-14T23:14:23.677Z,21.90
2018-11-14T23:19:28.194Z,18.25
2018-11-14T23:24:32.679Z,15.90
2018-11-14T23:29:37.161Z,18.52
2018-11-14T23:34:46.656Z,16.75
2018-11-14T23:39:51.201Z,14.25
2018-11-14T23:44:56.024Z,16.27
2018-11-14T23:50:00.774Z,14.57
2018-11-14T23:55:04.966Z,15.50
